Terminal Aerodrome Forecast
Issued by NWS

Home | Current Version | Previous Version | Text Only | Print | Product List | Glossary On
Versions: 1 2 3 4 5 6 7 8 9 10 11 12 13 14 15 16 17 18 19
000
FTAK31 PAJN 230500
TAFAKT
TAF
PAKT 230535Z 2306/2406 VRB06KT P6SM VCTS FEW040CB BKN100
      TEMPO 2307/2311 14012KT
     FM231200 16006KT 6SM BCFG BKN006
     FM231600 32006KT P6SM SCT006 BKN100
     FM232100 32010KT P6SM VCSH SCT060 BKN100
      AMD LTD TO CLD VIS AND WIND TIL 231500=

USA.gov is the U.S. government's official web portal to all federal, state and local government web resources and services.